sensor_id;sensor_type;location;lat;lon;timestamp;P1;durP1;ratioP1;P2;durP2;ratioP2
13147;SDS011;6639;50.956;4.242;2022-09-16T00:02:02;3.35;;;1.58;;
13147;SDS011;6639;50.956;4.242;2022-09-16T00:04:30;2.97;;;1.42;;
13147;SDS011;6639;50.956;4.242;2022-09-16T00:06:57;6.38;;;1.77;;
13147;SDS011;6639;50.956;4.242;2022-09-16T00:09:24;3.53;;;1.40;;
13147;SDS011;6639;50.956;4.242;2022-09-16T00:11:51;7.25;;;1.80;;
13147;SDS011;6639;50.956;4.242;2022-09-16T00:14:18;5.03;;;1.90;;
13147;SDS011;6639;50.956;4.242;2022-09-16T00:16:45;5.38;;;1.77;;
13147;SDS011;6639;50.956;4.242;2022-09-16T00:19:11;4.05;;;1.50;;
13147;SDS011;6639;50.956;4.242;2022-09-16T00:21:40;2.65;;;1.65;;
13147;SDS011;6639;50.956;4.242;2022-09-16T00:24:08;4.15;;;1.45;;
13147;SDS011;6639;50.956;4.242;2022-09-16T00:26:38;3.78;;;1.90;;
13147;SDS011;6639;50.956;4.242;2022-09-16T00:29:04;10.85;;;1.83;;
13147;SDS011;6639;50.956;4.242;2022-09-16T00:31:31;4.45;;;1.63;;
13147;SDS011;6639;50.956;4.242;2022-09-16T00:33:58;3.03;;;1.60;;
13147;SDS011;6639;50.956;4.242;2022-09-16T00:36:25;4.45;;;1.65;;
13147;SDS011;6639;50.956;4.242;2022-09-16T00:38:53;4.93;;;1.50;;
13147;SDS011;6639;50.956;4.242;2022-09-16T00:41:21;2.25;;;1.55;;
13147;SDS011;6639;50.956;4.242;2022-09-16T00:43:50;3.22;;;1.75;;
13147;SDS011;6639;50.956;4.242;2022-09-16T00:46:20;4.63;;;1.88;;
13147;SDS011;6639;50.956;4.242;2022-09-16T00:48:52;3.95;;;1.60;;
13147;SDS011;6639;50.956;4.242;2022-09-16T00:51:19;3.53;;;1.70;;
13147;SDS011;6639;50.956;4.242;2022-09-16T00:53:47;2.58;;;1.70;;
13147;SDS011;6639;50.956;4.242;2022-09-16T00:56:22;3.33;;;1.67;;
13147;SDS011;6639;50.956;4.242;2022-09-16T00:58:52;7.82;;;1.88;;
13147;SDS011;6639;50.956;4.242;2022-09-16T01:01:26;3.05;;;1.50;;
13147;SDS011;6639;50.956;4.242;2022-09-16T01:03:55;3.72;;;1.40;;
13147;SDS011;6639;50.956;4.242;2022-09-16T01:06:25;2.40;;;1.27;;
13147;SDS011;6639;50.956;4.242;2022-09-16T01:08:53;7.93;;;1.83;;
13147;SDS011;6639;50.956;4.242;2022-09-16T01:11:23;2.38;;;1.23;;
13147;SDS011;6639;50.956;4.242;2022-09-16T01:13:50;4.43;;;1.40;;
13147;SDS011;6639;50.956;4.242;2022-09-16T01:16:19;5.03;;;1.80;;
13147;SDS011;6639;50.956;4.242;2022-09-16T01:18:52;3.70;;;1.27;;
13147;SDS011;6639;50.956;4.242;2022-09-16T01:21:34;3.03;;;1.30;;
13147;SDS011;6639;50.956;4.242;2022-09-16T01:27:23;1.90;;;0.95;;
13147;SDS011;6639;50.956;4.242;2022-09-16T01:30:13;4.60;;;1.50;;
13147;SDS011;6639;50.956;4.242;2022-09-16T01:35:36;6.85;;;1.83;;
13147;SDS011;6639;50.956;4.242;2022-09-16T01:38:09;5.10;;;1.50;;
13147;SDS011;6639;50.956;4.242;2022-09-16T01:40:48;2.05;;;1.20;;
13147;SDS011;6639;50.956;4.242;2022-09-16T01:43:22;3.42;;;1.42;;
13147;SDS011;6639;50.956;4.242;2022-09-16T01:45:59;2.30;;;1.00;;
13147;SDS011;6639;50.956;4.242;2022-09-16T01:48:32;2.67;;;1.55;;
13147;SDS011;6639;50.956;4.242;2022-09-16T01:51:05;2.67;;;1.05;;
13147;SDS011;6639;50.956;4.242;2022-09-16T01:53:35;4.72;;;2.00;;
13147;SDS011;6639;50.956;4.242;2022-09-16T01:56:05;4.20;;;1.50;;
13147;SDS011;6639;50.956;4.242;2022-09-16T01:58:37;3.20;;;1.52;;
13147;SDS011;6639;50.956;4.242;2022-09-16T02:01:09;2.50;;;1.42;;
13147;SDS011;6639;50.956;4.242;2022-09-16T02:03:42;4.45;;;1.27;;
13147;SDS011;6639;50.956;4.242;2022-09-16T02:06:15;7.10;;;1.45;;
13147;SDS011;6639;50.956;4.242;2022-09-16T02:08:45;2.13;;;0.90;;
13147;SDS011;6639;50.956;4.242;2022-09-16T02:11:17;2.25;;;1.08;;
13147;SDS011;6639;50.956;4.242;2022-09-16T02:13:46;4.22;;;0.98;;
13147;SDS011;6639;50.956;4.242;2022-09-16T02:16:18;3.42;;;1.20;;
13147;SDS011;6639;50.956;4.242;2022-09-16T02:18:52;2.60;;;1.05;;
13147;SDS011;6639;50.956;4.242;2022-09-16T02:21:24;6.00;;;1.30;;
13147;SDS011;6639;50.956;4.242;2022-09-16T02:23:54;4.10;;;1.40;;
13147;SDS011;6639;50.956;4.242;2022-09-16T02:26:27;1.67;;;1.15;;
13147;SDS011;6639;50.956;4.242;2022-09-16T02:28:58;6.30;;;1.50;;
13147;SDS011;6639;50.956;4.242;2022-09-16T02:31:29;3.53;;;1.25;;
13147;SDS011;6639;50.956;4.242;2022-09-16T02:34:02;2.70;;;1.00;;
13147;SDS011;6639;50.956;4.242;2022-09-16T02:36:34;1.63;;;1.20;;
13147;SDS011;6639;50.956;4.242;2022-09-16T02:39:06;4.07;;;1.13;;
13147;SDS011;6639;50.956;4.242;2022-09-16T02:41:36;1.42;;;1.23;;
13147;SDS011;6639;50.956;4.242;2022-09-16T02:44:04;4.03;;;1.40;;
13147;SDS011;6639;50.956;4.242;2022-09-16T02:46:37;4.05;;;1.83;;
13147;SDS011;6639;50.956;4.242;2022-09-16T02:49:10;3.10;;;1.60;;
13147;SDS011;6639;50.956;4.242;2022-09-16T02:51:45;4.57;;;1.05;;
13147;SDS011;6639;50.956;4.242;2022-09-16T02:54:24;2.97;;;1.40;;
13147;SDS011;6639;50.956;4.242;2022-09-16T02:56:59;2.83;;;1.38;;
13147;SDS011;6639;50.956;4.242;2022-09-16T02:59:26;1.95;;;1.33;;
13147;SDS011;6639;50.956;4.242;2022-09-16T03:01:53;2.65;;;1.80;;
13147;SDS011;6639;50.956;4.242;2022-09-16T03:04:22;2.90;;;1.52;;
13147;SDS011;6639;50.956;4.242;2022-09-16T03:06:48;5.80;;;1.60;;
13147;SDS011;6639;50.956;4.242;2022-09-16T03:09:15;2.50;;;1.15;;
13147;SDS011;6639;50.956;4.242;2022-09-16T03:12:01;6.30;;;1.77;;
13147;SDS011;6639;50.956;4.242;2022-09-16T03:20:59;4.25;;;1.30;;
13147;SDS011;6639;50.956;4.242;2022-09-16T03:23:37;2.38;;;1.17;;
13147;SDS011;6639;50.956;4.242;2022-09-16T03:26:10;2.63;;;1.10;;
13147;SDS011;6639;50.956;4.242;2022-09-16T03:28:46;6.05;;;1.17;;
13147;SDS011;6639;50.956;4.242;2022-09-16T03:31:23;2.38;;;1.10;;
13147;SDS011;6639;50.956;4.242;2022-09-16T03:33:56;3.40;;;1.05;;
13147;SDS011;6639;50.956;4.242;2022-09-16T03:36:32;4.10;;;1.00;;
13147;SDS011;6639;50.956;4.242;2022-09-16T03:39:02;3.75;;;1.20;;
13147;SDS011;6639;50.956;4.242;2022-09-16T03:41:30;5.28;;;1.58;;
13147;SDS011;6639;50.956;4.242;2022-09-16T03:43:58;3.17;;;1.40;;
13147;SDS011;6639;50.956;4.242;2022-09-16T03:46:25;3.28;;;1.05;;
13147;SDS011;6639;50.956;4.242;2022-09-16T03:48:53;3.40;;;1.38;;
13147;SDS011;6639;50.956;4.242;2022-09-16T03:51:20;4.25;;;1.20;;
13147;SDS011;6639;50.956;4.242;2022-09-16T03:53:49;2.45;;;1.20;;
13147;SDS011;6639;50.956;4.242;2022-09-16T03:56:16;2.60;;;1.02;;
13147;SDS011;6639;50.956;4.242;2022-09-16T03:58:43;3.05;;;1.50;;
13147;SDS011;6639;50.956;4.242;2022-09-16T04:01:12;3.92;;;1.20;;
13147;SDS011;6639;50.956;4.242;2022-09-16T04:03:40;5.13;;;1.40;;
13147;SDS011;6639;50.956;4.242;2022-09-16T04:06:07;2.85;;;1.25;;
13147;SDS011;6639;50.956;4.242;2022-09-16T04:08:34;2.53;;;1.15;;
13147;SDS011;6639;50.956;4.242;2022-09-16T04:11:03;3.33;;;1.73;;
13147;SDS011;6639;50.956;4.242;2022-09-16T04:13:31;3.63;;;1.25;;
13147;SDS011;6639;50.956;4.242;2022-09-16T04:15:59;2.80;;;1.00;;
13147;SDS011;6639;50.956;4.242;2022-09-16T04:18:26;2.50;;;1.23;;
13147;SDS011;6639;50.956;4.242;2022-09-16T04:20:55;3.30;;;1.40;;
13147;SDS011;6639;50.956;4.242;2022-09-16T04:23:22;2.08;;;1.20;;
13147;SDS011;6639;50.956;4.242;2022-09-16T04:25:52;4.13;;;1.08;;
13147;SDS011;6639;50.956;4.242;2022-09-16T04:28:21;4.70;;;1.30;;
13147;SDS011;6639;50.956;4.242;2022-09-16T04:30:48;3.10;;;1.08;;
13147;SDS011;6639;50.956;4.242;2022-09-16T04:33:16;4.65;;;1.52;;
13147;SDS011;6639;50.956;4.242;2022-09-16T04:35:42;3.45;;;1.30;;
13147;SDS011;6639;50.956;4.242;2022-09-16T04:38:09;1.75;;;0.95;;
13147;SDS011;6639;50.956;4.242;2022-09-16T04:40:36;3.85;;;1.27;;
13147;SDS011;6639;50.956;4.242;2022-09-16T04:43:04;4.38;;;1.50;;
13147;SDS011;6639;50.956;4.242;2022-09-16T04:45:32;1.48;;;1.30;;
13147;SDS011;6639;50.956;4.242;2022-09-16T04:47:59;1.88;;;1.15;;
13147;SDS011;6639;50.956;4.242;2022-09-16T04:50:26;4.57;;;1.50;;
13147;SDS011;6639;50.956;4.242;2022-09-16T04:52:53;3.45;;;1.05;;
13147;SDS011;6639;50.956;4.242;2022-09-16T04:55:20;3.13;;;1.10;;
13147;SDS011;6639;50.956;4.242;2022-09-16T04:57:48;2.13;;;1.20;;
13147;SDS011;6639;50.956;4.242;2022-09-16T05:00:15;4.63;;;1.00;;
13147;SDS011;6639;50.956;4.242;2022-09-16T05:02:44;4.78;;;1.45;;
13147;SDS011;6639;50.956;4.242;2022-09-16T05:05:11;2.13;;;0.95;;
13147;SDS011;6639;50.956;4.242;2022-09-16T05:07:38;3.00;;;1.58;;
13147;SDS011;6639;50.956;4.242;2022-09-16T05:10:05;2.15;;;1.60;;
13147;SDS011;6639;50.956;4.242;2022-09-16T05:12:33;2.40;;;1.10;;
13147;SDS011;6639;50.956;4.242;2022-09-16T05:14:59;3.92;;;1.13;;
13147;SDS011;6639;50.956;4.242;2022-09-16T05:17:27;4.05;;;1.40;;
13147;SDS011;6639;50.956;4.242;2022-09-16T05:19:56;3.60;;;1.65;;
13147;SDS011;6639;50.956;4.242;2022-09-16T05:22:23;4.63;;;1.77;;
13147;SDS011;6639;50.956;4.242;2022-09-16T05:24:50;6.38;;;1.88;;
13147;SDS011;6639;50.956;4.242;2022-09-16T05:27:17;4.13;;;1.67;;
13147;SDS011;6639;50.956;4.242;2022-09-16T05:29:44;4.78;;;1.40;;
13147;SDS011;6639;50.956;4.242;2022-09-16T05:32:10;5.78;;;1.77;;
13147;SDS011;6639;50.956;4.242;2022-09-16T05:34:37;3.25;;;1.67;;
13147;SDS011;6639;50.956;4.242;2022-09-16T05:37:06;2.50;;;1.90;;
13147;SDS011;6639;50.956;4.242;2022-09-16T05:39:32;8.00;;;2.70;;
13147;SDS011;6639;50.956;4.242;2022-09-16T05:41:59;5.95;;;2.58;;
13147;SDS011;6639;50.956;4.242;2022-09-16T05:44:28;3.30;;;1.80;;
13147;SDS011;6639;50.956;4.242;2022-09-16T05:46:55;2.65;;;1.92;;
13147;SDS011;6639;50.956;4.242;2022-09-16T05:49:22;7.20;;;1.90;;
13147;SDS011;6639;50.956;4.242;2022-09-16T05:51:50;4.43;;;2.47;;
13147;SDS011;6639;50.956;4.242;2022-09-16T05:54:19;6.03;;;2.55;;
13147;SDS011;6639;50.956;4.242;2022-09-16T05:56:49;3.15;;;1.70;;
13147;SDS011;6639;50.956;4.242;2022-09-16T05:59:16;3.22;;;1.33;;
13147;SDS011;6639;50.956;4.242;2022-09-16T06:01:43;2.75;;;1.40;;
13147;SDS011;6639;50.956;4.242;2022-09-16T06:04:11;7.35;;;1.70;;
13147;SDS011;6639;50.956;4.242;2022-09-16T06:06:40;2.25;;;1.23;;
13147;SDS011;6639;50.956;4.242;2022-09-16T06:09:08;2.58;;;1.27;;
13147;SDS011;6639;50.956;4.242;2022-09-16T06:11:38;1.70;;;1.33;;
13147;SDS011;6639;50.956;4.242;2022-09-16T06:14:07;4.30;;;1.30;;
13147;SDS011;6639;50.956;4.242;2022-09-16T06:16:34;1.73;;;1.23;;
13147;SDS011;6639;50.956;4.242;2022-09-16T06:19:03;3.72;;;1.30;;
13147;SDS011;6639;50.956;4.242;2022-09-16T06:21:30;3.80;;;1.40;;
13147;SDS011;6639;50.956;4.242;2022-09-16T06:23:57;8.02;;;1.90;;
13147;SDS011;6639;50.956;4.242;2022-09-16T06:26:25;6.03;;;1.65;;
13147;SDS011;6639;50.956;4.242;2022-09-16T06:28:53;3.80;;;1.90;;
13147;SDS011;6639;50.956;4.242;2022-09-16T06:31:21;2.55;;;1.90;;
13147;SDS011;6639;50.956;4.242;2022-09-16T06:33:49;7.63;;;2.50;;
13147;SDS011;6639;50.956;4.242;2022-09-16T06:36:17;4.03;;;2.00;;
13147;SDS011;6639;50.956;4.242;2022-09-16T06:38:45;6.68;;;2.30;;
13147;SDS011;6639;50.956;4.242;2022-09-16T06:41:13;6.25;;;2.47;;
13147;SDS011;6639;50.956;4.242;2022-09-16T06:43:41;5.18;;;1.95;;
13147;SDS011;6639;50.956;4.242;2022-09-16T06:46:11;4.63;;;1.95;;
13147;SDS011;6639;50.956;4.242;2022-09-16T06:48:40;2.78;;;2.00;;
13147;SDS011;6639;50.956;4.242;2022-09-16T06:51:10;2.58;;;1.90;;
13147;SDS011;6639;50.956;4.242;2022-09-16T06:53:38;2.95;;;2.15;;
13147;SDS011;6639;50.956;4.242;2022-09-16T06:56:06;4.13;;;1.83;;
13147;SDS011;6639;50.956;4.242;2022-09-16T06:58:36;3.17;;;1.45;;
13147;SDS011;6639;50.956;4.242;2022-09-16T07:01:05;5.55;;;1.70;;
13147;SDS011;6639;50.956;4.242;2022-09-16T07:03:35;2.97;;;1.73;;
13147;SDS011;6639;50.956;4.242;2022-09-16T07:06:03;5.15;;;1.27;;
13147;SDS011;6639;50.956;4.242;2022-09-16T07:08:31;2.13;;;1.08;;
13147;SDS011;6639;50.956;4.242;2022-09-16T07:10:59;2.95;;;1.63;;
13147;SDS011;6639;50.956;4.242;2022-09-16T07:13:27;3.83;;;1.60;;
13147;SDS011;6639;50.956;4.242;2022-09-16T07:15:57;1.77;;;1.20;;
13147;SDS011;6639;50.956;4.242;2022-09-16T07:18:25;3.75;;;1.52;;
13147;SDS011;6639;50.956;4.242;2022-09-16T07:20:58;3.15;;;1.38;;
13147;SDS011;6639;50.956;4.242;2022-09-16T07:23:27;4.70;;;1.60;;
13147;SDS011;6639;50.956;4.242;2022-09-16T07:25:58;3.35;;;1.48;;
13147;SDS011;6639;50.956;4.242;2022-09-16T07:28:25;4.57;;;1.70;;
13147;SDS011;6639;50.956;4.242;2022-09-16T07:30:52;1.52;;;1.10;;
13147;SDS011;6639;50.956;4.242;2022-09-16T07:33:19;3.05;;;1.60;;
13147;SDS011;6639;50.956;4.242;2022-09-16T07:35:46;3.30;;;1.42;;
13147;SDS011;6639;50.956;4.242;2022-09-16T07:38:14;3.95;;;1.50;;
13147;SDS011;6639;50.956;4.242;2022-09-16T07:40:41;4.18;;;1.40;;
13147;SDS011;6639;50.956;4.242;2022-09-16T07:43:08;2.50;;;1.23;;
13147;SDS011;6639;50.956;4.242;2022-09-16T07:45:34;2.90;;;1.58;;
13147;SDS011;6639;50.956;4.242;2022-09-16T07:48:01;2.88;;;1.27;;
13147;SDS011;6639;50.956;4.242;2022-09-16T07:50:28;4.82;;;1.10;;
13147;SDS011;6639;50.956;4.242;2022-09-16T07:52:55;4.07;;;1.20;;
13147;SDS011;6639;50.956;4.242;2022-09-16T07:55:23;2.80;;;1.42;;
13147;SDS011;6639;50.956;4.242;2022-09-16T07:57:51;1.25;;;0.93;;
13147;SDS011;6639;50.956;4.242;2022-09-16T08:00:18;1.48;;;1.10;;
13147;SDS011;6639;50.956;4.242;2022-09-16T08:02:45;3.60;;;1.40;;
13147;SDS011;6639;50.956;4.242;2022-09-16T08:05:12;2.60;;;1.10;;
13147;SDS011;6639;50.956;4.242;2022-09-16T08:07:40;4.45;;;1.30;;
13147;SDS011;6639;50.956;4.242;2022-09-16T08:10:07;4.68;;;1.42;;
13147;SDS011;6639;50.956;4.242;2022-09-16T08:12:35;2.92;;;1.42;;
13147;SDS011;6639;50.956;4.242;2022-09-16T08:15:02;3.60;;;1.35;;
13147;SDS011;6639;50.956;4.242;2022-09-16T08:17:30;2.40;;;1.23;;
13147;SDS011;6639;50.956;4.242;2022-09-16T08:19:56;2.90;;;1.20;;
13147;SDS011;6639;50.956;4.242;2022-09-16T08:22:24;2.97;;;1.52;;
13147;SDS011;6639;50.956;4.242;2022-09-16T08:24:50;5.35;;;1.35;;
13147;SDS011;6639;50.956;4.242;2022-09-16T08:27:17;2.83;;;1.10;;
13147;SDS011;6639;50.956;4.242;2022-09-16T08:29:46;4.88;;;1.85;;
13147;SDS011;6639;50.956;4.242;2022-09-16T08:32:13;6.80;;;1.63;;
13147;SDS011;6639;50.956;4.242;2022-09-16T08:34:39;6.75;;;1.70;;
13147;SDS011;6639;50.956;4.242;2022-09-16T08:37:06;5.90;;;1.75;;
13147;SDS011;6639;50.956;4.242;2022-09-16T08:39:33;3.88;;;1.42;;
13147;SDS011;6639;50.956;4.242;2022-09-16T08:42:07;5.35;;;1.42;;
13147;SDS011;6639;50.956;4.242;2022-09-16T08:44:47;4.97;;;1.25;;
13147;SDS011;6639;50.956;4.242;2022-09-16T08:47:26;7.20;;;1.75;;
13147;SDS011;6639;50.956;4.242;2022-09-16T08:50:00;3.15;;;1.20;;
13147;SDS011;6639;50.956;4.242;2022-09-16T08:52:31;6.15;;;2.10;;
13147;SDS011;6639;50.956;4.242;2022-09-16T08:55:01;4.82;;;1.98;;
13147;SDS011;6639;50.956;4.242;2022-09-16T08:57:33;2.33;;;1.63;;
13147;SDS011;6639;50.956;4.242;2022-09-16T09:00:12;5.20;;;2.20;;
13147;SDS011;6639;50.956;4.242;2022-09-16T09:02:41;5.45;;;2.38;;
13147;SDS011;6639;50.956;4.242;2022-09-16T09:05:16;2.67;;;1.75;;
13147;SDS011;6639;50.956;4.242;2022-09-16T09:07:51;3.15;;;1.90;;
13147;SDS011;6639;50.956;4.242;2022-09-16T09:10:28;6.57;;;1.65;;
13147;SDS011;6639;50.956;4.242;2022-09-16T09:13:07;5.75;;;1.90;;
13147;SDS011;6639;50.956;4.242;2022-09-16T09:15:44;1.90;;;1.42;;
13147;SDS011;6639;50.956;4.242;2022-09-16T09:18:18;6.05;;;1.38;;
13147;SDS011;6639;50.956;4.242;2022-09-16T09:20:56;2.38;;;0.98;;
13147;SDS011;6639;50.956;4.242;2022-09-16T09:23:39;6.47;;;1.50;;
13147;SDS011;6639;50.956;4.242;2022-09-16T09:26:21;2.38;;;1.15;;
13147;SDS011;6639;50.956;4.242;2022-09-16T09:28:59;2.05;;;0.93;;
13147;SDS011;6639;50.956;4.242;2022-09-16T09:31:44;1.85;;;1.00;;
13147;SDS011;6639;50.956;4.242;2022-09-16T09:34:24;3.35;;;0.90;;
13147;SDS011;6639;50.956;4.242;2022-09-16T09:37:02;0.93;;;0.90;;
13147;SDS011;6639;50.956;4.242;2022-09-16T09:39:45;2.65;;;0.80;;
13147;SDS011;6639;50.956;4.242;2022-09-16T09:42:22;4.43;;;1.17;;
13147;SDS011;6639;50.956;4.242;2022-09-16T09:44:55;6.68;;;2.00;;
13147;SDS011;6639;50.956;4.242;2022-09-16T09:47:27;3.75;;;1.20;;
13147;SDS011;6639;50.956;4.242;2022-09-16T09:50:02;1.75;;;1.13;;
13147;SDS011;6639;50.956;4.242;2022-09-16T09:52:39;2.97;;;1.30;;
13147;SDS011;6639;50.956;4.242;2022-09-16T09:55:14;2.58;;;1.10;;
13147;SDS011;6639;50.956;4.242;2022-09-16T09:57:46;1.92;;;1.10;;
13147;SDS011;6639;50.956;4.242;2022-09-16T10:00:27;3.08;;;1.38;;
13147;SDS011;6639;50.956;4.242;2022-09-16T10:03:02;4.78;;;1.50;;
13147;SDS011;6639;50.956;4.242;2022-09-16T10:05:32;3.70;;;1.30;;
13147;SDS011;6639;50.956;4.242;2022-09-16T10:08:01;2.80;;;1.23;;
13147;SDS011;6639;50.956;4.242;2022-09-16T10:10:31;4.00;;;1.48;;
13147;SDS011;6639;50.956;4.242;2022-09-16T10:13:06;3.67;;;1.13;;
13147;SDS011;6639;50.956;4.242;2022-09-16T10:15:33;2.92;;;1.48;;
13147;SDS011;6639;50.956;4.242;2022-09-16T10:18:07;2.28;;;1.10;;
13147;SDS011;6639;50.956;4.242;2022-09-16T10:20:38;2.47;;;0.90;;
13147;SDS011;6639;50.956;4.242;2022-09-16T10:23:09;2.13;;;1.00;;
13147;SDS011;6639;50.956;4.242;2022-09-16T10:25:38;1.60;;;1.00;;
13147;SDS011;6639;50.956;4.242;2022-09-16T10:28:17;2.60;;;1.10;;
13147;SDS011;6639;50.956;4.242;2022-09-16T10:30:46;2.05;;;1.00;;
13147;SDS011;6639;50.956;4.242;2022-09-16T10:33:22;3.85;;;1.42;;
13147;SDS011;6639;50.956;4.242;2022-09-16T10:35:51;1.98;;;1.00;;
13147;SDS011;6639;50.956;4.242;2022-09-16T10:38:22;2.08;;;1.38;;
13147;SDS011;6639;50.956;4.242;2022-09-16T10:40:52;2.60;;;1.40;;
13147;SDS011;6639;50.956;4.242;2022-09-16T10:43:22;2.17;;;1.08;;
13147;SDS011;6639;50.956;4.242;2022-09-16T10:45:51;4.32;;;1.30;;
13147;SDS011;6639;50.956;4.242;2022-09-16T10:48:22;3.70;;;1.25;;
13147;SDS011;6639;50.956;4.242;2022-09-16T10:50:52;2.50;;;1.05;;
13147;SDS011;6639;50.956;4.242;2022-09-16T10:53:21;3.53;;;0.90;;
13147;SDS011;6639;50.956;4.242;2022-09-16T10:55:56;0.77;;;0.77;;
13147;SDS011;6639;50.956;4.242;2022-09-16T10:58:24;2.20;;;0.70;;
13147;SDS011;6639;50.956;4.242;2022-09-16T11:00:55;3.35;;;0.93;;
13147;SDS011;6639;50.956;4.242;2022-09-16T11:06:45;2.70;;;0.95;;
13147;SDS011;6639;50.956;4.242;2022-09-16T11:09:25;0.77;;;0.50;;
13147;SDS011;6639;50.956;4.242;2022-09-16T11:12:09;2.55;;;1.00;;
13147;SDS011;6639;50.956;4.242;2022-09-16T11:14:56;2.53;;;0.60;;
13147;SDS011;6639;50.956;4.242;2022-09-16T11:17:33;6.32;;;1.38;;
13147;SDS011;6639;50.956;4.242;2022-09-16T11:23:05;3.47;;;1.08;;
13147;SDS011;6639;50.956;4.242;2022-09-16T11:25:41;2.08;;;1.15;;
13147;SDS011;6639;50.956;4.242;2022-09-16T11:28:22;3.60;;;1.17;;
13147;SDS011;6639;50.956;4.242;2022-09-16T11:31:23;1.77;;;0.82;;
13147;SDS011;6639;50.956;4.242;2022-09-16T11:33:59;2.70;;;1.00;;
13147;SDS011;6639;50.956;4.242;2022-09-16T11:36:35;1.48;;;0.80;;
13147;SDS011;6639;50.956;4.242;2022-09-16T11:42:04;1.75;;;0.93;;
13147;SDS011;6639;50.956;4.242;2022-09-16T11:44:40;4.25;;;1.48;;
13147;SDS011;6639;50.956;4.242;2022-09-16T11:47:17;2.67;;;0.95;;
13147;SDS011;6639;50.956;4.242;2022-09-16T11:50:02;2.75;;;1.20;;
13147;SDS011;6639;50.956;4.242;2022-09-16T11:52:41;3.63;;;1.35;;
13147;SDS011;6639;50.956;4.242;2022-09-16T11:55:26;1.75;;;1.20;;
13147;SDS011;6639;50.956;4.242;2022-09-16T11:58:02;2.67;;;1.20;;
13147;SDS011;6639;50.956;4.242;2022-09-16T12:00:35;4.25;;;1.05;;
13147;SDS011;6639;50.956;4.242;2022-09-16T12:03:08;1.77;;;0.77;;
13147;SDS011;6639;50.956;4.242;2022-09-16T12:05:46;2.50;;;0.85;;
13147;SDS011;6639;50.956;4.242;2022-09-16T12:08:19;1.85;;;1.23;;
13147;SDS011;6639;50.956;4.242;2022-09-16T12:10:54;2.50;;;0.77;;
13147;SDS011;6639;50.956;4.242;2022-09-16T12:13:25;2.88;;;0.80;;
13147;SDS011;6639;50.956;4.242;2022-09-16T12:15:55;2.45;;;1.17;;
13147;SDS011;6639;50.956;4.242;2022-09-16T12:18:26;2.75;;;0.90;;
13147;SDS011;6639;50.956;4.242;2022-09-16T12:21:00;4.80;;;1.00;;
13147;SDS011;6639;50.956;4.242;2022-09-16T12:23:32;1.45;;;0.80;;
13147;SDS011;6639;50.956;4.242;2022-09-16T12:26:07;1.80;;;0.80;;
13147;SDS011;6639;50.956;4.242;2022-09-16T12:28:38;4.07;;;1.00;;
13147;SDS011;6639;50.956;4.242;2022-09-16T12:31:12;3.92;;;1.30;;
13147;SDS011;6639;50.956;4.242;2022-09-16T12:33:46;4.53;;;1.50;;
13147;SDS011;6639;50.956;4.242;2022-09-16T12:36:18;3.10;;;1.52;;
13147;SDS011;6639;50.956;4.242;2022-09-16T12:38:49;2.65;;;1.25;;
13147;SDS011;6639;50.956;4.242;2022-09-16T12:41:23;4.07;;;0.98;;
13147;SDS011;6639;50.956;4.242;2022-09-16T12:44:04;3.10;;;1.40;;
13147;SDS011;6639;50.956;4.242;2022-09-16T12:47:02;2.47;;;1.02;;
13147;SDS011;6639;50.956;4.242;2022-09-16T12:49:55;3.00;;;1.40;;
13147;SDS011;6639;50.956;4.242;2022-09-16T12:52:44;2.47;;;1.23;;
13147;SDS011;6639;50.956;4.242;2022-09-16T12:58:27;5.47;;;2.10;;
13147;SDS011;6639;50.956;4.242;2022-09-16T13:01:19;4.53;;;1.88;;
13147;SDS011;6639;50.956;4.242;2022-09-16T13:03:50;4.72;;;1.80;;
13147;SDS011;6639;50.956;4.242;2022-09-16T13:06:21;2.85;;;1.35;;
13147;SDS011;6639;50.956;4.242;2022-09-16T13:08:51;3.70;;;1.38;;
13147;SDS011;6639;50.956;4.242;2022-09-16T13:11:20;3.35;;;1.42;;
13147;SDS011;6639;50.956;4.242;2022-09-16T13:13:50;4.15;;;1.70;;
13147;SDS011;6639;50.956;4.242;2022-09-16T13:16:27;5.57;;;1.90;;
13147;SDS011;6639;50.956;4.242;2022-09-16T13:22:00;3.35;;;1.13;;
13147;SDS011;6639;50.956;4.242;2022-09-16T13:24:36;3.72;;;0.90;;
13147;SDS011;6639;50.956;4.242;2022-09-16T13:27:18;4.65;;;0.73;;
13147;SDS011;6639;50.956;4.242;2022-09-16T13:30:09;1.17;;;0.90;;
13147;SDS011;6639;50.956;4.242;2022-09-16T13:32:40;1.45;;;0.52;;
13147;SDS011;6639;50.956;4.242;2022-09-16T13:35:20;2.17;;;0.60;;
13147;SDS011;6639;50.956;4.242;2022-09-16T13:37:49;3.95;;;1.08;;
13147;SDS011;6639;50.956;4.242;2022-09-16T13:40:19;0.70;;;0.55;;
13147;SDS011;6639;50.956;4.242;2022-09-16T13:42:48;1.83;;;0.65;;
13147;SDS011;6639;50.956;4.242;2022-09-16T13:45:33;0.73;;;0.52;;
13147;SDS011;6639;50.956;4.242;2022-09-16T13:48:04;0.50;;;0.40;;
13147;SDS011;6639;50.956;4.242;2022-09-16T13:50:37;1.50;;;1.13;;
13147;SDS011;6639;50.956;4.242;2022-09-16T13:53:08;1.10;;;0.98;;
13147;SDS011;6639;50.956;4.242;2022-09-16T13:55:35;1.55;;;0.60;;
13147;SDS011;6639;50.956;4.242;2022-09-16T13:58:05;1.05;;;0.35;;
13147;SDS011;6639;50.956;4.242;2022-09-16T14:00:44;1.88;;;0.40;;
13147;SDS011;6639;50.956;4.242;2022-09-16T14:03:22;0.98;;;0.60;;
13147;SDS011;6639;50.956;4.242;2022-09-16T14:06:07;1.48;;;0.90;;
13147;SDS011;6639;50.956;4.242;2022-09-16T14:08:43;1.38;;;0.45;;
13147;SDS011;6639;50.956;4.242;2022-09-16T14:11:21;2.38;;;0.50;;
13147;SDS011;6639;50.956;4.242;2022-09-16T14:13:57;2.20;;;0.57;;
13147;SDS011;6639;50.956;4.242;2022-09-16T14:16:29;0.38;;;0.35;;
13147;SDS011;6639;50.956;4.242;2022-09-16T14:18:59;0.60;;;0.60;;
13147;SDS011;6639;50.956;4.242;2022-09-16T14:21:29;0.40;;;0.40;;
13147;SDS011;6639;50.956;4.242;2022-09-16T14:24:05;0.70;;;0.70;;
13147;SDS011;6639;50.956;4.242;2022-09-16T14:26:33;0.40;;;0.40;;
13147;SDS011;6639;50.956;4.242;2022-09-16T14:29:01;1.73;;;0.32;;
13147;SDS011;6639;50.956;4.242;2022-09-16T14:31:30;0.40;;;0.30;;
13147;SDS011;6639;50.956;4.242;2022-09-16T14:33:58;0.55;;;0.20;;
13147;SDS011;6639;50.956;4.242;2022-09-16T14:36:31;1.10;;;0.30;;
13147;SDS011;6639;50.956;4.242;2022-09-16T14:39:09;0.65;;;0.40;;
13147;SDS011;6639;50.956;4.242;2022-09-16T14:41:40;0.88;;;0.70;;
13147;SDS011;6639;50.956;4.242;2022-09-16T14:44:13;0.43;;;0.28;;
13147;SDS011;6639;50.956;4.242;2022-09-16T14:46:48;0.20;;;0.20;;
13147;SDS011;6639;50.956;4.242;2022-09-16T14:49:17;1.20;;;0.32;;
13147;SDS011;6639;50.956;4.242;2022-09-16T14:51:44;0.20;;;0.20;;
13147;SDS011;6639;50.956;4.242;2022-09-16T14:54:15;0.50;;;0.40;;
13147;SDS011;6639;50.956;4.242;2022-09-16T14:56:52;0.75;;;0.30;;
13147;SDS011;6639;50.956;4.242;2022-09-16T14:59:20;0.57;;;0.57;;
13147;SDS011;6639;50.956;4.242;2022-09-16T15:01:52;1.40;;;0.28;;
13147;SDS011;6639;50.956;4.242;2022-09-16T15:04:23;0.68;;;0.38;;
13147;SDS011;6639;50.956;4.242;2022-09-16T15:06:53;1.02;;;0.47;;
13147;SDS011;6639;50.956;4.242;2022-09-16T15:09:26;1.35;;;0.60;;
13147;SDS011;6639;50.956;4.242;2022-09-16T15:12:00;1.10;;;0.60;;
13147;SDS011;6639;50.956;4.242;2022-09-16T15:14:29;1.05;;;0.52;;
13147;SDS011;6639;50.956;4.242;2022-09-16T15:16:57;0.85;;;0.70;;
13147;SDS011;6639;50.956;4.242;2022-09-16T15:19:27;4.22;;;1.10;;
13147;SDS011;6639;50.956;4.242;2022-09-16T15:21:57;2.28;;;1.05;;
13147;SDS011;6639;50.956;4.242;2022-09-16T15:24:25;2.58;;;0.80;;
13147;SDS011;6639;50.956;4.242;2022-09-16T15:26:55;2.35;;;0.90;;
13147;SDS011;6639;50.956;4.242;2022-09-16T15:29:28;2.58;;;0.90;;
13147;SDS011;6639;50.956;4.242;2022-09-16T15:32:11;1.45;;;0.95;;
13147;SDS011;6639;50.956;4.242;2022-09-16T15:34:42;3.35;;;0.93;;
13147;SDS011;6639;50.956;4.242;2022-09-16T15:39:54;1.25;;;0.88;;
13147;SDS011;6639;50.956;4.242;2022-09-16T15:42:32;1.73;;;0.65;;
13147;SDS011;6639;50.956;4.242;2022-09-16T15:44:59;1.58;;;0.80;;
13147;SDS011;6639;50.956;4.242;2022-09-16T15:47:29;2.55;;;0.90;;
13147;SDS011;6639;50.956;4.242;2022-09-16T15:49:58;1.35;;;0.52;;
13147;SDS011;6639;50.956;4.242;2022-09-16T15:52:28;3.05;;;0.82;;
13147;SDS011;6639;50.956;4.242;2022-09-16T15:54:59;1.77;;;0.63;;
13147;SDS011;6639;50.956;4.242;2022-09-16T15:57:31;1.92;;;0.50;;